Meath Environmental Platform

Observations for Trim Patrick St

Time AQI Temp °C Hum % Pres Pa CO μg/m³ H₂S μg/m³ NO μg/m³ NO₂ μg/m³ O₃ μg/m³ SO₂ μg/m³ PM1 μg/m³ PM2.5 μg/m³ PM10 μg/m³
Tuesday 4 August 2026
02:13 2 16.5 87 38,460 0.16 1.81 1.18 32.06 46.23 0 9.71 13.02 14.32
02:12 2 16.5 87 38,460 0.15 1.11 1.02 29.24 43.16 0 8.86 12.34 13.57
02:11 2 16.5 87 38,460 0.15 0.04 1.14 23.61 31.14 0 10.57 13.71 15.08
02:10 2 16.5 86 38,460 0.15 2.91 1.27 28.89 43.76 0 11.43 16.49 18.13
02:09 2 16.5 86 38,460 0.16 2.46 1 33.95 61.29 0 9.71 13.03 14.34
02:08 2 16.5 87 38,460 0.15 2.91 1.07 27.35 30.05 0 11.43 13.71 15.08
02:07 2 16.5 87 38,460 0.16 3.14 1.01 38.85 67.59 0 10.57 13.71 15.08
02:06 2 16.5 86 38,460 0.15 3.12 1.09 34.76 38.74 0 10.57 15.11 16.62
02:05 2 16.5 86 38,460 0.15 2.67 0.83 32.21 44.76 0 9.71 13.74 15.11
02:04 2 16.5 86 38,460 0.19 2.83 0.96 31.17 33.37 0 10.57 14.42 15.86
02:03 2 16.5 86 38,460 0.15 1.63 1.01 26.51 32.43 0 9.71 12.37 13.61
02:02 2 16.5 86 38,460 0.15 2.18 1.03 28.39 29.85 0 9.71 13.06 14.37
02:01 2 16.5 86 38,460 0.14 3.9 0.95 37.15 43.09 0 9.71 13.06 14.37
02:00 2 16.5 86 38,460 0.13 3.2 1.01 27.89 19.58 0 8.86 12.38 13.62
01:59 2 16.5 86 38,460 0.14 4.29 1.1 39.01 52.29 0 8.86 13.8 15.18
01:58 2 16.4 86 38,460 0.15 3.95 1.15 38.75 46.01 0 8 11.73 12.9
01:57 2 16.5 86 38,460 0.13 3.38 1.36 36.77 32.97 0 8.86 12.4 13.64
01:56 2 16.5 86 38,460 0.14 1.52 1.42 31.22 27.48 0 8.86 13.11 14.42
01:55 2 16.4 86 38,460 0.13 2.52 1.39 32.38 33.79 0 8.86 13.11 14.42
01:54 2 16.4 86 38,460 0.14 2.33 1.37 26.17 27.05 0 8.86 13.11 14.42